CheckWX is a tool to help pilots better visualize weather data.  It is not intended as a substitute for an official pre-flight weather briefing.

19:11:03 UTC

SBRF TAF
Guararapes - Gilberto Freyre International Airport
Recife, Brazil
TAF SBRF 231600Z 2318/2418 12008KT 9999 SCT023 FEW025TCU TN26/2407Z TX30/2415Z BECMG 2402/2404 BKN023 BECMG 2410/2412 SCT023 RMK PDU

Feb-23@
18:00 UTC

Feb-23 @ 18:00 UTC

Feb-24@
02:00 UTC

Feb-24 @ 02:00 UTC

TAF SBRF 231600Z 2318/2418 12008KT 9999 SCT023 FEW025TCU TN26/2407Z TX30/2415Z
Wind
  • 120° at 8 KTS
Cloud Levels
  • Scattered at 2,300' AGL
  • Few at 2,500' AGL

Feb-24@
02:00 UTC

Feb-24 @ 02:00 UTC

Feb-24@
10:00 UTC

Feb-24 @ 10:00 UTC

BECMG 2402/2404 BKN023

Becoming

Becoming Conditions expected by Sun, Feb 24, 2019 @ 04:00 UTC

Wind
  • 120° at 8 KTS
Cloud Levels
  • Broken at 2,300' AGL

Feb-24@
10:00 UTC

Feb-24 @ 10:00 UTC

Feb-24@
18:00 UTC

Feb-24 @ 18:00 UTC

BECMG 2410/2412 SCT023 RMK PDU

Becoming

Becoming Conditions expected by Sun, Feb 24, 2019 @ 12:00 UTC

Wind
  • 120° at 8 KTS
Conditions
Dust
Cloud Levels
  • Scattered at 2,300' AGL